Time;durP1;ratioP1;P1;durP2;ratioP2;P2;SDS_P1;SDS_P2;PMS_P1;PMS_P2;Temp;Humidity;BMP_temperature;BMP_pressure;BME280_temperature;BME280_humidity;BME280_pressure;Samples;Min_cycle;Max_cycle;Signal;HPM_P1;HPM_P2
2023/01/18 00:00:07;;;;;;;29.65;22.08;;;;;;;-3.54;100.00;99011.56;5090415;28;20032;-46
2023/01/18 00:02:32;;;;;;;30.08;21.27;;;;;;;-3.55;100.00;99012.66;5090330;28;20108;-49
2023/01/18 00:04:58;;;;;;;29.60;22.20;;;;;;;-3.56;100.00;99021.84;5090585;28;20107;-46
2023/01/18 00:07:23;;;;;;;28.73;20.75;;;;;;;-3.55;100.00;99009.97;5089137;28;20433;-48
2023/01/18 00:09:48;;;;;;;29.80;20.30;;;;;;;-3.56;100.00;99015.63;5090556;28;20043;-48
2023/01/18 00:12:13;;;;;;;30.92;21.48;;;;;;;-3.54;100.00;99013.47;5090212;28;20024;-47
2023/01/18 00:14:39;;;;;;;28.02;21.30;;;;;;;-3.54;100.00;99016.19;5082660;28;20031;-47
2023/01/18 00:17:04;;;;;;;29.88;21.00;;;;;;;-3.56;100.00;99012.91;5090348;28;20527;-49
2023/01/18 00:19:30;;;;;;;27.73;20.15;;;;;;;-3.55;100.00;99020.78;5090501;28;20090;-47
2023/01/18 00:21:56;;;;;;;25.30;19.48;;;;;;;-3.58;100.00;99015.88;5090461;28;20439;-48
2023/01/18 00:24:22;;;;;;;26.95;19.67;;;;;;;-3.56;100.00;99016.44;5088810;28;20077;-47
2023/01/18 00:26:48;;;;;;;28.15;20.02;;;;;;;-3.58;100.00;99010.47;5090166;28;20509;-46
2023/01/18 00:29:14;;;;;;;27.90;21.00;;;;;;;-3.55;100.00;99020.78;5090155;28;20032;-46
2023/01/18 00:31:40;;;;;;;27.98;20.58;;;;;;;-3.53;100.00;99017.81;5088647;28;20074;-45
2023/01/18 00:34:06;;;;;;;27.10;20.05;;;;;;;-3.53;100.00;99029.41;5090492;28;20114;-45
2023/01/18 00:36:32;;;;;;;28.80;20.48;;;;;;;-3.53;100.00;99028.63;5090158;28;20035;-47
2023/01/18 00:38:57;;;;;;;26.40;19.58;;;;;;;-3.54;100.00;99030.50;5090797;28;20020;-46
2023/01/18 00:41:22;;;;;;;29.58;19.77;;;;;;;-3.52;100.00;99027.56;5094056;28;20031;-46
2023/01/18 00:43:48;;;;;;;28.63;20.58;;;;;;;-3.53;100.00;99032.13;5093636;28;20028;-46
2023/01/18 00:46:16;;;;;;;29.23;19.33;;;;;;;-3.54;100.00;99030.50;5092944;28;20028;-46
2023/01/18 00:48:42;;;;;;;28.92;19.52;;;;;;;-3.50;100.00;99025.41;5093524;28;20032;-46
2023/01/18 00:51:10;;;;;;;31.67;20.23;;;;;;;-3.50;100.00;99026.22;5093668;28;20039;-47
2023/01/18 00:53:37;;;;;;;26.88;19.10;;;;;;;-3.47;100.00;99024.88;5093393;28;20089;-46
2023/01/18 00:56:05;;;;;;;27.10;18.52;;;;;;;-3.41;100.00;99029.28;5093410;28;20201;-47
2023/01/18 00:58:31;;;;;;;28.15;19.30;;;;;;;-3.38;100.00;99036.03;5093324;28;20020;-45
2023/01/18 01:00:56;;;;;;;26.80;18.80;;;;;;;-3.37;100.00;99032.28;5093180;28;20489;-45
2023/01/18 01:03:21;;;;;;;26.20;19.35;;;;;;;-3.34;100.00;99029.88;5091641;28;20531;-47
2023/01/18 01:08:31;;;;;;;;;;;;;;;-3.30;100.00;99033.66;5094214;28;20051;-47
2023/01/18 01:11:06;;;;;;;28.23;18.83;;;;;;;-3.35;100.00;99035.50;5092922;28;19908;-49
2023/01/18 01:27:12;;;;;;;;;;;;;;;-3.48;100.00;99042.16;5093681;28;20035;-45
2023/01/18 01:29:38;;;;;;;27.85;19.73;;;;;;;-3.56;100.00;99045.34;5093051;28;19912;-48
2023/01/18 01:32:04;;;;;;;29.25;18.95;;;;;;;-3.62;100.00;99049.88;5093117;28;20038;-47
2023/01/18 01:34:30;;;;;;;28.90;19.55;;;;;;;-3.67;100.00;99052.56;5091420;28;20028;-47
2023/01/18 01:36:56;;;;;;;27.60;19.75;;;;;;;-3.71;100.00;99052.25;5093015;28;20028;-46
2023/01/18 01:39:22;;;;;;;26.67;18.88;;;;;;;-3.72;100.00;99058.72;5092761;28;20028;-46
2023/01/18 01:41:48;;;;;;;27.75;19.30;;;;;;;-3.74;100.00;99051.97;5092434;28;20038;-48
2023/01/18 01:44:19;;;;;;;27.80;19.17;;;;;;;-3.75;100.00;99053.84;5091821;28;20026;-47
2023/01/18 01:46:47;;;;;;;25.95;19.70;;;;;;;-3.77;100.00;99066.78;5090238;28;20060;-47
2023/01/18 01:49:25;;;;;;;26.92;19.88;;;;;;;-3.83;100.00;99070.50;5090564;28;20483;-46
2023/01/18 01:51:57;;;;;;;29.40;20.42;;;;;;;-3.86;100.00;99062.91;5091502;28;20028;-46
2023/01/18 01:54:28;;;;;;;27.77;20.30;;;;;;;-3.84;100.00;99067.00;5092679;28;20059;-49
2023/01/18 01:56:59;;;;;;;29.27;19.58;;;;;;;-3.87;100.00;99070.19;5092030;28;20499;-47
2023/01/18 01:59:25;;;;;;;27.15;21.00;;;;;;;-3.86;100.00;99071.00;5092089;28;20475;-46
2023/01/18 02:01:50;;;;;;;26.52;20.27;;;;;;;-3.90;100.00;99056.38;5092424;28;20035;-46
2023/01/18 02:04:16;;;;;;;28.02;19.65;;;;;;;-3.91;100.00;99066.38;5091952;28;20031;-47
2023/01/18 02:06:41;;;;;;;27.20;20.05;;;;;;;-3.90;100.00;99064.50;5092440;28;20486;-47
2023/01/18 02:09:11;;;;;;;28.27;20.27;;;;;;;-3.88;100.00;99070.47;5092269;28;20520;-46
2023/01/18 02:11:37;;;;;;;27.40;19.67;;;;;;;-3.84;100.00;99075.09;5092151;28;20081;-46
2023/01/18 02:14:07;;;;;;;30.05;20.35;;;;;;;-3.81;100.00;99069.19;5089096;28;20032;-50
2023/01/18 02:17:03;;;;;;;29.40;20.45;;;;;;;-3.77;100.00;99067.59;5088342;28;20023;-47
2023/01/18 02:19:38;;;;;;;28.42;19.42;;;;;;;-3.77;100.00;99062.19;5090485;28;20059;-46
2023/01/18 02:22:36;;;;;;;29.05;19.85;;;;;;;-3.81;100.00;99054.88;5091940;28;20099;-45
2023/01/18 02:25:04;;;;;;;27.23;19.40;;;;;;;-3.73;100.00;99070.59;5080807;28;20044;-47
2023/01/18 02:27:42;;;;;;;26.20;19.48;;;;;;;-3.74;100.00;99068.19;5091866;28;20157;-46
2023/01/18 02:30:07;;;;;;;28.13;19.23;;;;;;;-3.70;100.00;99070.09;5090741;28;20100;-49
2023/01/18 02:32:54;;;;;;;27.85;20.08;;;;;;;-3.66;100.00;99078.53;5091724;28;20428;-46
2023/01/18 02:35:41;;;;;;;27.25;20.15;;;;;;;-3.66;100.00;99076.63;5091676;28;20028;-46
2023/01/18 02:38:12;;;;;;;26.90;19.50;;;;;;;-3.64;100.00;99088.00;5091320;28;20449;-46
2023/01/18 02:41:02;;;;;;;28.38;19.88;;;;;;;-3.64;100.00;99088.00;5091576;28;20081;-46
2023/01/18 02:46:34;;;;;;;29.17;18.85;;;;;;;-3.62;100.00;99085.03;5091834;28;20108;-48
2023/01/18 02:49:18;;;;;;;28.05;20.15;;;;;;;-3.63;100.00;99089.63;5091682;28;20028;-45
2023/01/18 02:51:44;;;;;;;26.67;19.40;;;;;;;-3.62;100.00;99090.44;5090594;28;20172;-48
2023/01/18 02:54:11;;;;;;;27.42;19.92;;;;;;;-3.63;100.00;99094.22;5091062;28;20146;-45
2023/01/18 02:56:41;;;;;;;27.20;19.80;;;;;;;-3.70;100.00;99083.63;5091435;28;20028;-47
2023/01/18 02:59:21;;;;;;;27.35;19.73;;;;;;;-3.67;100.00;99099.31;5091236;28;20031;-45
2023/01/18 03:01:51;;;;;;;27.48;19.25;;;;;;;-3.69;100.00;99095.22;5090922;28;20059;-45
2023/01/18 03:04:54;;;;;;;29.00;19.50;;;;;;;-3.72;100.00;99093.03;5091125;28;20023;-46
2023/01/18 03:07:38;;;;;;;31.83;20.13;;;;;;;-3.79;100.00;99090.56;5077903;28;20094;-44
2023/01/18 03:10:08;;;;;;;26.33;19.00;;;;;;;-3.86;100.00;99096.16;5091738;28;20150;-47
2023/01/18 03:12:45;;;;;;;27.23;19.45;;;;;;;-3.87;100.00;99091.81;5091609;28;20032;-47
2023/01/18 03:15:16;;;;;;;27.00;20.08;;;;;;;-3.90;100.00;99088.81;5087022;28;20028;-45
2023/01/18 03:18:06;;;;;;;27.70;19.73;;;;;;;-3.94;100.00;99089.31;5091286;28;20050;-46
2023/01/18 03:20:38;;;;;;;28.27;20.35;;;;;;;-3.97;100.00;99097.09;5091362;28;20132;-46
2023/01/18 03:26:03;;;;;;;26.60;18.92;;;;;;;-4.06;100.00;99085.91;5091716;28;20411;-47
2023/01/18 03:34:39;;;;;;;27.70;19.75;;;;;;;-4.14;100.00;99099.88;5091683;28;19965;-48
2023/01/18 03:37:10;;;;;;;28.80;19.52;;;;;;;-4.15;100.00;99104.47;5091509;28;20028;-45
2023/01/18 03:40:07;;;;;;;28.15;20.02;;;;;;;-4.18;100.00;99099.56;5091036;28;20443;-44
2023/01/18 03:42:58;;;;;;;27.08;20.02;;;;;;;-4.19;100.00;99107.94;5088705;28;20448;-51
2023/01/18 03:45:41;;;;;;;28.55;19.45;;;;;;;-4.23;100.00;99113.81;5079645;28;20035;-48
2023/01/18 03:48:08;;;;;;;26.27;20.38;;;;;;;-4.26;100.00;99117.03;5089505;28;20032;-46
2023/01/18 03:51:12;;;;;;;26.15;19.67;;;;;;;-4.28;100.00;99115.63;5090811;28;20031;-47
2023/01/18 03:53:45;;;;;;;27.67;20.05;;;;;;;-4.32;100.00;99118.03;5090593;28;20103;-48
2023/01/18 03:56:24;;;;;;;27.33;20.98;;;;;;;-4.40;100.00;99119.28;5091059;28;20052;-46
2023/01/18 03:58:55;;;;;;;26.58;20.17;;;;;;;-4.36;100.00;99121.47;5089781;28;20039;-52
2023/01/18 04:01:20;;;;;;;28.65;21.42;;;;;;;-4.39;100.00;99136.28;5090184;28;20039;-49
2023/01/18 04:03:46;;;;;;;27.92;21.83;;;;;;;-4.38;100.00;99149.53;5090240;28;20103;-46
2023/01/18 04:06:11;;;;;;;29.42;21.15;;;;;;;-4.38;100.00;99146.03;5090089;28;20028;-46
2023/01/18 04:08:36;;;;;;;28.38;20.70;;;;;;;-4.41;100.00;99150.06;5090277;28;20039;-46
2023/01/18 04:11:02;;;;;;;28.30;20.38;;;;;;;-4.42;100.00;99147.59;5090611;28;20530;-47
2023/01/18 04:13:27;;;;;;;26.63;19.42;;;;;;;-4.43;100.00;99152.19;5090507;28;20523;-46
2023/01/18 04:15:52;;;;;;;27.60;20.55;;;;;;;-4.51;100.00;99141.81;5086709;28;20051;-46
2023/01/18 04:18:17;;;;;;;29.85;21.63;;;;;;;-4.47;100.00;99161.81;5093838;28;20035;-44
2023/01/18 04:20:43;;;;;;;30.52;21.25;;;;;;;-4.46;100.00;99166.16;5094142;28;20028;-46
2023/01/18 04:23:08;;;;;;;28.50;20.45;;;;;;;-4.50;100.00;99148.00;5094371;28;20032;-46
2023/01/18 04:25:34;;;;;;;30.45;21.58;;;;;;;-4.48;100.00;99154.00;5094252;28;20024;-45
2023/01/18 04:27:59;;;;;;;26.88;20.20;;;;;;;-4.48;100.00;99154.00;5094031;28;20471;-46
2023/01/18 04:30:26;;;;;;;28.73;20.63;;;;;;;-4.43;100.00;99162.97;5093920;28;20032;-46
2023/01/18 04:32:51;;;;;;;27.90;20.08;;;;;;;-4.42;100.00;99161.09;5093809;28;20469;-45
2023/01/18 04:35:16;;;;;;;29.67;21.30;;;;;;;-4.39;100.00;99163.28;5093889;28;20107;-48
2023/01/18 04:37:41;;;;;;;25.63;19.52;;;;;;;-4.40;100.00;99159.78;5093793;28;20039;-48
2023/01/18 04:40:07;;;;;;;30.20;20.02;;;;;;;-4.40;100.00;99162.50;5092056;28;20038;-47
2023/01/18 04:42:33;;;;;;;29.15;20.08;;;;;;;-4.39;100.00;99156.00;5093878;28;20121;-46
2023/01/18 04:44:59;;;;;;;30.35;21.52;;;;;;;-4.35;100.00;99163.59;5092253;28;20479;-46
2023/01/18 04:47:27;;;;;;;29.27;20.80;;;;;;;-4.31;100.00;99165.56;5093772;28;20101;-45
2023/01/18 04:49:53;;;;;;;27.75;20.63;;;;;;;-4.23;100.00;99169.72;5093661;28;20053;-46
2023/01/18 04:52:19;;;;;;;28.52;20.13;;;;;;;-4.21;100.00;99164.91;5093688;28;20054;-45
2023/01/18 04:54:44;;;;;;;28.92;21.17;;;;;;;-4.24;100.00;99170.78;5093230;28;20044;-46
2023/01/18 04:57:09;;;;;;;27.85;20.65;;;;;;;-4.23;100.00;99167.03;5093500;28;20545;-47
2023/01/18 04:59:38;;;;;;;28.45;21.02;;;;;;;-4.20;100.00;99171.91;5093269;28;20028;-48
2023/01/18 05:02:03;;;;;;;28.55;20.88;;;;;;;-4.24;100.00;99174.28;5093583;28;20115;-46
2023/01/18 05:04:29;;;;;;;28.00;20.92;;;;;;;-4.23;100.00;99180.53;5093202;28;20379;-47
2023/01/18 05:06:54;;;;;;;28.30;21.48;;;;;;;-4.21;100.00;99177.56;5093355;28;20031;-46
2023/01/18 05:09:20;;;;;;;28.08;20.58;;;;;;;-4.19;100.00;99181.66;5093519;28;20050;-47
2023/01/18 05:11:45;;;;;;;28.77;20.90;;;;;;;-4.18;100.00;99195.97;5093458;28;20099;-46
2023/01/18 05:14:10;;;;;;;28.02;20.65;;;;;;;-4.16;100.00;99197.38;5085478;28;20069;-46
2023/01/18 05:16:35;;;;;;;27.95;20.75;;;;;;;-4.12;100.00;99208.47;5093230;28;20024;-45
2023/01/18 05:19:01;;;;;;;27.83;19.83;;;;;;;-4.11;100.00;99189.31;5093044;28;20032;-45
2023/01/18 05:21:27;;;;;;;27.17;20.98;;;;;;;-4.13;100.00;99190.63;5091940;28;20032;-46
2023/01/18 05:23:53;;;;;;;27.55;20.98;;;;;;;-4.17;100.00;99194.91;5091748;28;20035;-47
2023/01/18 05:26:21;;;;;;;29.33;20.75;;;;;;;-4.20;100.00;99192.72;5093110;28;20031;-48
2023/01/18 05:28:48;;;;;;;30.67;21.13;;;;;;;-4.19;100.00;99214.06;5092752;28;20337;-46
2023/01/18 05:31:14;;;;;;;29.17;21.55;;;;;;;-4.22;100.00;99209.16;5091653;28;20032;-45
2023/01/18 05:33:40;;;;;;;29.42;21.60;;;;;;;-4.23;100.00;99218.34;5093117;28;20459;-45
2023/01/18 05:36:06;;;;;;;27.70;21.23;;;;;;;-4.20;100.00;99214.31;5093140;28;20027;-46
2023/01/18 05:38:31;;;;;;;27.50;21.13;;;;;;;-4.20;100.00;99208.91;5093007;28;20035;-46
2023/01/18 05:40:57;;;;;;;27.67;21.15;;;;;;;-4.18;100.00;99210.28;5093140;28;20024;-48
2023/01/18 05:43:24;;;;;;;31.52;21.48;;;;;;;-4.13;100.00;99210.38;5093076;28;20024;-46
2023/01/18 05:45:49;;;;;;;27.77;20.92;;;;;;;-4.08;100.00;99215.03;5091486;28;20118;-49
2023/01/18 05:48:15;;;;;;;27.92;21.08;;;;;;;-4.08;100.00;99215.03;5092943;28;20110;-46
2023/01/18 05:50:44;;;;;;;30.17;22.13;;;;;;;-4.14;100.00;99208.75;5093080;28;20028;-45
2023/01/18 05:53:11;;;;;;;28.48;21.48;;;;;;;-4.13;100.00;99221.19;5091537;28;20407;-45
2023/01/18 05:55:36;;;;;;;30.20;21.05;;;;;;;-4.13;100.00;99223.88;5091340;28;20048;-45
2023/01/18 05:58:02;;;;;;;27.83;21.17;;;;;;;-4.12;100.00;99227.38;5090927;28;20174;-45
2023/01/18 06:00:28;;;;;;;30.15;22.05;;;;;;;-4.15;100.00;99231.41;5091514;28;20090;-45
2023/01/18 06:02:54;;;;;;;29.10;21.35;;;;;;;-4.20;100.00;99235.91;5091931;28;20020;-45
2023/01/18 06:05:21;;;;;;;34.20;22.88;;;;;;;-4.25;100.00;99233.97;5092604;28;20024;-48
2023/01/18 06:07:49;;;;;;;32.90;21.55;;;;;;;-4.27;100.00;99244.19;5091206;28;20428;-45
2023/01/18 06:10:14;;;;;;;29.88;22.27;;;;;;;-4.33;100.00;99242.47;5092118;28;20024;-47
2023/01/18 06:12:41;;;;;;;29.58;22.35;;;;;;;-4.35;100.00;99245.44;5092264;28;20435;-47
2023/01/18 06:15:07;;;;;;;30.00;22.05;;;;;;;-4.36;100.00;99251.91;5084905;28;20036;-48
2023/01/18 06:17:33;;;;;;;31.75;22.65;;;;;;;-4.39;100.00;99258.59;5091929;28;20032;-45
2023/01/18 06:19:58;;;;;;;37.80;23.48;;;;;;;-4.40;100.00;99261.53;5091214;28;20604;-46
2023/01/18 06:22:24;;;;;;;31.38;24.40;;;;;;;-4.43;100.00;99262.03;5072822;28;20032;-46
2023/01/18 06:24:49;;;;;;;29.95;21.60;;;;;;;-4.48;100.00;99257.38;5090825;28;20031;-45
2023/01/18 06:27:14;;;;;;;32.55;22.58;;;;;;;-4.47;100.00;99277.91;5090956;28;20075;-47
2023/01/18 06:29:40;;;;;;;28.00;21.33;;;;;;;-4.48;100.00;99270.06;5090918;28;20406;-47
2023/01/18 06:32:05;;;;;;;31.48;22.05;;;;;;;-4.49;100.00;99276.53;5090652;28;20043;-46
2023/01/18 06:34:32;;;;;;;28.13;21.38;;;;;;;-4.50;100.00;99280.28;5090192;28;20028;-51
2023/01/18 06:36:57;;;;;;;28.88;22.00;;;;;;;-4.51;100.00;99275.94;5089905;28;20648;-49
2023/01/18 06:39:23;;;;;;;29.30;21.55;;;;;;;-4.51;100.00;99282.16;5089828;28;20111;-50
2023/01/18 06:41:49;;;;;;;28.52;21.70;;;;;;;-4.52;100.00;99280.53;5090163;28;20077;-49
2023/01/18 06:44:14;;;;;;;30.70;22.25;;;;;;;-4.52;100.00;99285.09;5089609;28;20020;-47
2023/01/18 06:46:42;;;;;;;31.30;22.42;;;;;;;-4.53;100.00;99296.97;5089441;28;20468;-47
2023/01/18 06:49:07;;;;;;;29.80;22.55;;;;;;;-4.58;100.00;99281.53;5089378;28;20537;-48
2023/01/18 06:51:33;;;;;;;31.38;22.52;;;;;;;-4.59;100.00;99299.56;5089713;28;20102;-47
2023/01/18 06:53:58;;;;;;;31.63;22.98;;;;;;;-4.66;100.00;99298.09;5089302;28;20093;-50
2023/01/18 06:56:25;;;;;;;30.80;22.45;;;;;;;-4.59;100.00;99320.38;5089383;28;20027;-51
2023/01/18 06:58:51;;;;;;;31.85;22.80;;;;;;;-4.59;100.00;99302.28;5089482;28;20035;-47
2023/01/18 07:01:16;;;;;;;29.33;21.90;;;;;;;-4.57;100.00;99310.13;5088610;28;20020;-47
2023/01/18 07:03:42;;;;;;;28.73;21.92;;;;;;;-4.51;100.00;99309.16;5089600;28;20032;-48
2023/01/18 07:06:07;;;;;;;29.23;21.65;;;;;;;-4.50;100.00;99318.91;5088602;28;20035;-48
2023/01/18 07:08:34;;;;;;;30.38;21.67;;;;;;;-4.46;100.00;99324.63;5086981;28;20119;-48
2023/01/18 07:11:06;;;;;;;32.50;22.55;;;;;;;-4.45;100.00;99331.66;5071237;28;20123;-47
2023/01/18 07:13:32;;;;;;;32.92;23.77;;;;;;;-4.45;100.00;99329.78;5070240;28;20036;-47
2023/01/18 07:15:58;;;;;;;29.85;21.70;;;;;;;-4.45;100.00;99329.78;5088236;28;20537;-48
2023/01/18 07:18:24;;;;;;;32.10;22.45;;;;;;;-4.43;100.00;99326.81;5089177;28;20427;-47
2023/01/18 07:21:16;;;;;;;35.25;23.67;;;;;;;-4.43;100.00;99330.34;5089106;28;20106;-47
2023/01/18 07:23:42;;;;;;;30.25;22.95;;;;;;;-4.48;100.00;99338.34;5085102;28;20043;-47
2023/01/18 07:26:14;;;;;;;29.73;23.52;;;;;;;-4.48;100.00;99341.03;5088814;28;20024;-47
2023/01/18 07:28:40;;;;;;;32.35;23.83;;;;;;;-4.51;100.00;99344.25;5088019;28;20028;-47
2023/01/18 07:31:07;;;;;;;31.10;23.20;;;;;;;-4.51;100.00;99341.56;5090727;28;20032;-46
2023/01/18 07:33:33;;;;;;;31.90;24.75;;;;;;;-4.49;100.00;99349.41;5090657;28;20028;-49
2023/01/18 07:35:58;;;;;;;31.30;24.80;;;;;;;-4.49;100.00;99346.69;5091025;28;20039;-47
2023/01/18 07:38:24;;;;;;;35.10;24.60;;;;;;;-4.45;100.00;99350.56;5090282;28;20024;-46
2023/01/18 07:40:49;;;;;;;32.45;23.02;;;;;;;-4.49;100.00;99347.53;5075655;28;20351;-49
2023/01/18 07:43:16;;;;;;;31.77;22.98;;;;;;;-4.45;100.00;99354.06;5090421;28;20016;-50
2023/01/18 07:45:42;;;;;;;30.88;23.40;;;;;;;-4.45;100.00;99358.66;5087808;28;20095;-47
2023/01/18 07:48:07;;;;;;;32.13;23.85;;;;;;;-4.46;100.00;99362.41;5086152;28;20039;-49
2023/01/18 07:50:33;;;;;;;30.40;21.95;;;;;;;-4.46;100.00;99363.22;5088687;28;20370;-47
2023/01/18 07:53:05;;;;;;;29.08;22.00;;;;;;;-4.45;100.00;99362.16;5089516;28;20024;-47
2023/01/18 07:55:31;;;;;;;33.40;23.00;;;;;;;-4.44;100.00;99363.81;5089661;28;20050;-48
2023/01/18 07:57:57;;;;;;;30.60;21.80;;;;;;;-4.44;100.00;99358.41;5089889;28;20052;-49
2023/01/18 08:00:23;;;;;;;33.40;22.27;;;;;;;-4.39;100.00;99368.47;5091152;28;20045;-50
2023/01/18 08:02:52;;;;;;;34.00;22.13;;;;;;;-4.38;100.00;99367.41;5091043;28;20028;-49
2023/01/18 08:05:22;;;;;;;39.28;26.67;;;;;;;-4.40;100.00;99372.25;5091143;28;20172;-51
2023/01/18 08:07:48;;;;;;;29.70;22.42;;;;;;;-4.38;100.00;99383.63;5091439;28;20523;-51
2023/01/18 08:10:14;;;;;;;33.60;22.52;;;;;;;-4.38;100.00;99380.91;5091290;28;20208;-48
2023/01/18 08:12:40;;;;;;;32.47;22.85;;;;;;;-4.36;100.00;99383.38;5091058;28;20600;-49
2023/01/18 08:15:06;;;;;;;33.78;23.60;;;;;;;-4.34;100.00;99392.03;5090886;28;20047;-47
2023/01/18 08:17:33;;;;;;;31.67;22.33;;;;;;;-4.33;100.00;99389.09;5090052;28;20348;-51
2023/01/18 08:19:58;;;;;;;35.53;24.00;;;;;;;-4.31;100.00;99389.66;5091199;28;20035;-48
2023/01/18 08:22:24;;;;;;;32.63;22.25;;;;;;;-4.30;100.00;99391.31;5090250;28;20028;-49
2023/01/18 08:24:49;;;;;;;31.88;21.85;;;;;;;-4.24;100.00;99395.72;5091914;28;20411;-47
2023/01/18 08:27:15;;;;;;;30.42;21.90;;;;;;;-4.22;100.00;99390.09;5092153;28;20039;-51
2023/01/18 08:29:41;;;;;;;30.17;21.58;;;;;;;-4.20;100.00;99404.16;5091729;28;20035;-49
2023/01/18 08:32:06;;;;;;;32.55;21.98;;;;;;;-4.18;100.00;99396.63;5091724;28;20024;-48
2023/01/18 08:34:31;;;;;;;30.27;21.77;;;;;;;-4.14;100.00;99397.81;5092184;28;20347;-49
2023/01/18 08:36:56;;;;;;;29.88;21.42;;;;;;;-4.10;100.00;99411.63;5091921;28;20384;-51
2023/01/18 08:39:22;;;;;;;33.78;21.88;;;;;;;-4.09;100.00;99411.38;5091566;28;20036;-48
2023/01/18 08:41:48;;;;;;;32.17;21.15;;;;;;;-4.04;100.00;99409.84;5091374;28;20059;-47
2023/01/18 08:44:13;;;;;;;30.65;21.10;;;;;;;-4.01;100.00;99409.31;5091993;28;20077;-52
2023/01/18 08:46:39;;;;;;;31.20;21.17;;;;;;;-3.99;100.00;99415.31;5091864;28;20111;-47
2023/01/18 08:49:05;;;;;;;30.55;21.35;;;;;;;-3.98;100.00;99419.66;5081968;28;20035;-46
2023/01/18 08:51:31;;;;;;;33.00;22.20;;;;;;;-3.93;100.00;99427.84;5090835;28;20443;-52
2023/01/18 08:53:57;;;;;;;31.02;20.92;;;;;;;-3.88;100.00;99424.41;5090976;28;20036;-48
2023/01/18 08:56:23;;;;;;;29.92;21.23;;;;;;;-3.85;100.00;99430.16;5090996;28;20031;-50
2023/01/18 08:58:50;;;;;;;29.60;21.65;;;;;;;-3.79;100.00;99431.06;5089957;28;20360;-50
2023/01/18 09:01:16;;;;;;;29.40;20.88;;;;;;;-3.74;100.00;99427.63;5090721;28;20024;-48
2023/01/18 09:03:41;;;;;;;29.73;20.33;;;;;;;-3.67;100.00;99428.25;5091422;28;20035;-52
2023/01/18 09:06:08;;;;;;;29.55;20.60;;;;;;;-3.57;100.00;99443.81;5091859;28;20523;-47
2023/01/18 09:08:33;;;;;;;29.42;20.60;;;;;;;-3.50;100.00;99442.56;5091086;28;20036;-54
2023/01/18 09:11:03;;;;;;;29.88;20.73;;;;;;;-3.43;100.00;99437.00;5089094;28;20046;-49
2023/01/18 09:13:29;;;;;;;29.05;20.50;;;;;;;-3.37;100.00;99444.13;5088958;28;20039;-46
2023/01/18 09:16:04;;;;;;;31.73;22.42;;;;;;;-3.29;100.00;99454.50;5089470;28;20106;-48
2023/01/18 09:18:30;;;;;;;28.50;20.83;;;;;;;-3.26;100.00;99457.78;5087933;28;20036;-52
2023/01/18 09:20:56;;;;;;;29.58;19.83;;;;;;;-3.20;100.00;99452.19;5078533;28;20040;-50
2023/01/18 09:23:22;;;;;;;29.35;21.17;;;;;;;-3.15;100.00;99462.28;5077591;28;20032;-49
2023/01/18 09:25:48;;;;;;;29.98;21.50;;;;;;;-3.09;100.00;99468.56;5074340;28;20067;-47
2023/01/18 09:28:15;;;;;;;31.58;20.80;;;;;;;-3.05;100.00;99478.66;5070681;28;20318;-47
2023/01/18 09:30:41;;;;;;;32.03;22.40;;;;;;;-2.98;100.00;99478.47;5070444;28;20032;-51
2023/01/18 09:33:06;;;;;;;30.65;21.42;;;;;;;-2.93;100.00;99478.53;5068767;28;20387;-47
2023/01/18 09:35:32;;;;;;;29.33;20.45;;;;;;;-2.85;100.00;99478.09;5069108;28;20067;-50
2023/01/18 09:37:58;;;;;;;30.13;21.55;;;;;;;-2.75;100.00;99485.53;5070750;28;20384;-48
2023/01/18 09:40:40;;;;;;;29.05;20.38;;;;;;;-2.69;100.00;99481.81;5069490;28;20024;-47
2023/01/18 09:43:14;;;;;;;32.92;20.98;;;;;;;-2.62;100.00;99483.50;5070923;28;20067;-48
2023/01/18 09:45:43;;;;;;;31.90;20.65;;;;;;;-2.55;100.00;99484.16;5069386;28;20039;-47
2023/01/18 09:48:25;;;;;;;29.17;20.08;;;;;;;-2.46;100.00;99498.06;5070544;28;20107;-48
2023/01/18 09:50:52;;;;;;;29.23;19.30;;;;;;;-2.40;100.00;99497.03;5070687;28;20055;-49
2023/01/18 09:53:39;;;;;;;28.33;19.70;;;;;;;-2.32;100.00;99496.59;5070642;28;20029;-49
2023/01/18 09:56:17;;;;;;;29.33;20.25;;;;;;;-2.23;100.00;99497.78;5070534;28;20057;-48
2023/01/18 09:59:19;;;;;;;28.15;19.52;;;;;;;-2.14;100.00;99491.91;5071090;28;20090;-48
2023/01/18 10:01:46;;;;;;;28.38;20.77;;;;;;;-2.09;100.00;99497.38;5070637;28;20506;-49
2023/01/18 10:04:23;;;;;;;28.25;20.40;;;;;;;-2.04;100.00;99497.44;5079174;28;20134;-49
2023/01/18 10:06:55;;;;;;;29.25;20.00;;;;;;;-1.97;100.00;99497.22;5090614;28;20028;-52
2023/01/18 10:09:25;;;;;;;32.08;20.10;;;;;;;-1.93;100.00;99496.44;5090267;28;20031;-50
2023/01/18 10:11:59;;;;;;;29.92;19.75;;;;;;;-1.85;100.00;99503.31;5089520;28;20028;-51
2023/01/18 10:14:44;;;;;;;26.80;18.85;;;;;;;-1.77;100.00;99508.25;5090590;28;20028;-49
2023/01/18 10:17:20;;;;;;;29.17;20.05;;;;;;;-1.71;100.00;99502.91;5088870;28;20032;-50
2023/01/18 10:19:45;;;;;;;27.02;18.95;;;;;;;-1.63;100.00;99507.84;5088811;28;20024;-49
2023/01/18 10:22:32;;;;;;;28.10;19.38;;;;;;;-1.58;100.00;99500.56;5090290;28;20505;-49
2023/01/18 10:25:18;;;;;;;28.13;19.63;;;;;;;-1.51;100.00;99504.97;5088783;28;20027;-49
2023/01/18 10:28:23;;;;;;;28.10;20.30;;;;;;;-1.45;100.00;99512.88;5090121;28;20388;-46
2023/01/18 10:31:02;;;;;;;26.02;19.85;;;;;;;-1.47;100.00;99496.03;5090419;28;20042;-48
2023/01/18 10:33:31;;;;;;;27.30;18.92;;;;;;;-1.34;100.00;99502.91;5089935;28;20464;-50
2023/01/18 10:36:05;;;;;;;26.75;18.33;;;;;;;-1.28;100.00;99507.31;5089890;28;20028;-49
2023/01/18 10:38:31;;;;;;;26.30;18.85;;;;;;;-1.21;100.00;99511.69;5091159;28;20028;-49
2023/01/18 10:40:59;;;;;;;27.75;19.90;;;;;;;-1.14;100.00;99509.56;5091092;28;20494;-49
2023/01/18 10:43:27;;;;;;;25.77;18.70;;;;;;;-1.08;100.00;99510.41;5090995;28;20039;-49
2023/01/18 10:45:53;;;;;;;26.27;18.00;;;;;;;-1.03;100.00;99510.44;5090208;28;20050;-48
2023/01/18 10:48:34;;;;;;;25.75;17.90;;;;;;;-0.96;100.00;99516.47;5089807;28;20024;-51
2023/01/18 10:51:02;;;;;;;29.83;18.38;;;;;;;-0.89;100.00;99519.78;5089609;28;20525;-52
2023/01/18 10:53:35;;;;;;;27.13;18.92;;;;;;;-0.85;100.00;99511.91;5089453;28;20032;-49
2023/01/18 10:56:11;;;;;;;27.05;18.55;;;;;;;-0.75;100.00;99519.28;5089407;28;20130;-49
2023/01/18 10:58:49;;;;;;;24.80;17.75;;;;;;;-0.72;100.00;99511.47;5089576;28;20039;-48
2023/01/18 11:01:21;;;;;;;24.38;17.77;;;;;;;-0.58;100.00;99529.97;5088026;28;20039;-52
2023/01/18 11:04:04;;;;;;;26.73;18.52;;;;;;;-0.48;100.00;99527.31;5089134;28;20135;-49
2023/01/18 11:06:30;;;;;;;25.63;17.77;;;;;;;-0.48;100.00;99522.72;5089425;28;20039;-48
2023/01/18 11:08:56;;;;;;;26.63;17.85;;;;;;;-0.42;100.00;99523.53;5087720;28;20499;-49
2023/01/18 11:14:33;;;;;;;24.58;17.65;;;;;;;-0.29;100.00;99530.38;5089551;28;20356;-48
2023/01/18 11:17:01;;;;;;;27.00;17.85;;;;;;;-0.21;100.00;99529.88;5088959;28;20504;-48
2023/01/18 11:19:27;;;;;;;25.17;18.33;;;;;;;-0.12;100.00;99534.78;5081547;28;20144;-49
2023/01/18 11:21:53;;;;;;;27.00;18.50;;;;;;;-0.06;100.00;99539.97;5090068;28;20431;-50
2023/01/18 11:24:25;;;;;;;26.25;18.23;;;;;;;-0.01;100.00;99531.00;5089959;28;20035;-52
2023/01/18 11:27:01;;;;;;;25.58;18.48;;;;;;;0.03;100.00;99529.38;5087705;28;20442;-47
2023/01/18 11:29:40;;;;;;;25.75;18.83;;;;;;;0.06;100.00;99517.97;5089132;28;20407;-48
2023/01/18 11:32:17;;;;;;;24.65;17.70;;;;;;;0.19;100.00;99524.78;5088963;28;20089;-49
2023/01/18 11:34:47;;;;;;;24.00;18.05;;;;;;;0.23;100.00;99516.91;5088846;28;20034;-51
2023/01/18 11:37:33;;;;;;;25.38;17.35;;;;;;;0.32;100.00;99518.00;5089092;28;20063;-49
2023/01/18 11:40:16;;;;;;;24.05;17.23;;;;;;;0.33;100.00;99518.84;5087969;28;20032;-49
2023/01/18 11:42:41;;;;;;;24.95;17.67;;;;;;;0.39;100.00;99510.38;5087367;28;20130;-47
2023/01/18 11:45:31;;;;;;;25.00;17.40;;;;;;;0.49;100.00;99519.66;5089076;28;20154;-48
2023/01/18 11:48:09;;;;;;;24.65;17.55;;;;;;;0.54;100.00;99514.22;5088593;28;20071;-50
2023/01/18 11:50:42;;;;;;;24.95;17.33;;;;;;;0.58;100.00;99518.84;5081274;28;20100;-52